Terminal Aerodrome Forecast
Issued by NWS

Home | Current Version | Previous Version | Text Only | Print | Product List | Glossary On
Versions: 1 2 3 4 5 6 7 8 9 10 11 12 13 14 15 16 17 18 19 20 21 22 23 24 25 26 27 28
000
FTUS43 KDLH 200900 AAB
TAFHIB
TAF AMD
KHIB 200958Z 2010/2106 31005KT P6SM BKN030
     FM201600 35011KT P6SM BKN035
     FM201900 36010KT P6SM SCT040
     FM202300 02004KT P6SM FEW040=

USA.gov is the U.S. government's official web portal to all federal, state and local government web resources and services.